createdAt,value
2023-01-19T00:00:37.072Z,6.57
2023-01-19T00:03:38.899Z,7.18
2023-01-19T00:06:54.019Z,6.90
2023-01-19T00:10:02.696Z,6.15
2023-01-19T00:13:11.002Z,6.05
2023-01-19T00:16:26.988Z,7.27
2023-01-19T00:19:29.227Z,7.53
2023-01-19T00:22:44.020Z,7.62
2023-01-19T00:25:52.995Z,6.68
2023-01-19T00:29:01.976Z,7.70
2023-01-19T00:32:12.044Z,6.70
2023-01-19T00:35:20.640Z,7.37
2023-01-19T00:38:29.008Z,7.45
2023-01-19T00:41:44.061Z,7.20
2023-01-19T00:44:45.914Z,7.07
2023-01-19T00:48:08.059Z,6.60
2023-01-19T00:51:09.868Z,6.77
2023-01-19T00:54:26.898Z,6.80
2023-01-19T00:57:29.444Z,6.70
2023-01-19T01:00:44.053Z,6.82
2023-01-19T01:03:53.034Z,7.25
2023-01-19T01:07:01.680Z,6.00
2023-01-19T01:10:10.032Z,6.60
2023-01-19T01:13:20.191Z,5.40
2023-01-19T01:16:30.089Z,5.70
2023-01-19T01:19:48.047Z,5.50
2023-01-19T01:22:52.130Z,5.43
2023-01-19T01:26:07.009Z,4.50
2023-01-19T01:29:08.863Z,4.90
2023-01-19T01:32:24.071Z,4.55
2023-01-19T01:35:25.908Z,4.07
2023-01-19T01:38:42.110Z,4.43
2023-01-19T01:41:51.051Z,3.83
2023-01-19T01:45:23.090Z,4.12
2023-01-19T01:48:39.044Z,3.37
2023-01-19T01:51:53.023Z,3.62
2023-01-19T01:55:03.097Z,2.93
2023-01-19T01:58:19.072Z,2.90
2023-01-19T02:01:21.002Z,3.03
2023-01-19T02:04:38.060Z,2.80
2023-01-19T02:08:05.657Z,2.97
2023-01-19T02:11:20.060Z,2.40
2023-01-19T02:14:29.089Z,2.23
2023-01-19T02:17:37.725Z,2.55
2023-01-19T02:20:50.129Z,2.20
2023-01-19T02:24:00.353Z,2.37
2023-01-19T02:27:09.065Z,2.37
2023-01-19T02:30:18.813Z,1.97
2023-01-19T02:33:27.096Z,1.90
2023-01-19T02:36:51.094Z,1.73
2023-01-19T02:39:56.640Z,1.65
2023-01-19T02:43:14.116Z,1.53
2023-01-19T02:46:16.355Z,1.70
2023-01-19T02:49:38.072Z,1.20
2023-01-19T02:52:46.042Z,1.35
2023-01-19T02:56:07.149Z,1.50
2023-01-19T02:59:31.107Z,1.30
2023-01-19T03:02:55.666Z,1.47
2023-01-19T03:06:18.087Z,1.10
2023-01-19T03:09:47.079Z,1.00
2023-01-19T03:12:56.662Z,1.12
2023-01-19T03:16:21.829Z,1.30
2023-01-19T03:19:32.796Z,0.70
2023-01-19T03:22:48.113Z,1.12
2023-01-19T03:25:51.015Z,1.27
2023-01-19T03:29:09.089Z,1.25
2023-01-19T03:32:23.217Z,1.10
2023-01-19T03:35:35.779Z,0.80
2023-01-19T03:38:47.134Z,1.08
2023-01-19T03:42:07.256Z,0.90
2023-01-19T03:45:17.167Z,1.00
2023-01-19T03:48:40.149Z,1.00
2023-01-19T03:51:42.228Z,0.90
2023-01-19T03:54:57.108Z,1.30
2023-01-19T03:57:59.015Z,0.80
2023-01-19T04:01:15.261Z,1.00
2023-01-19T04:04:24.141Z,0.90
2023-01-19T04:07:32.676Z,1.00
2023-01-19T04:10:41.212Z,1.10
2023-01-19T04:13:49.713Z,0.73
2023-01-19T04:16:58.120Z,0.77
2023-01-19T04:20:14.120Z,0.80
2023-01-19T04:23:22.181Z,0.60
2023-01-19T04:26:37.109Z,0.80
2023-01-19T04:29:39.256Z,0.95
2023-01-19T04:32:55.107Z,6.32
2023-01-19T04:35:57.305Z,0.67
2023-01-19T04:39:12.137Z,0.60
2023-01-19T04:42:21.147Z,0.80
2023-01-19T04:45:29.712Z,0.70
2023-01-19T04:48:51.164Z,0.60
2023-01-19T04:51:59.804Z,0.90
2023-01-19T04:55:11.167Z,0.90
2023-01-19T04:58:19.723Z,0.70
2023-01-19T05:01:29.248Z,0.80
2023-01-19T05:04:44.144Z,0.80
2023-01-19T05:07:53.000Z,0.80
2023-01-19T05:11:01.222Z,0.70
2023-01-19T05:14:10.156Z,0.70
2023-01-19T05:17:19.217Z,0.75
2023-01-19T05:20:34.163Z,4.35
2023-01-19T05:23:36.000Z,1.20
2023-01-19T05:26:51.164Z,0.60
2023-01-19T05:30:00.073Z,0.80
2023-01-19T05:33:09.193Z,0.50
2023-01-19T05:36:24.457Z,0.70
2023-01-19T05:39:32.867Z,0.87
2023-01-19T05:42:47.171Z,0.70
2023-01-19T05:45:49.187Z,1.00
2023-01-19T05:49:11.209Z,1.00
2023-01-19T05:52:13.142Z,1.40
2023-01-19T05:55:28.190Z,0.83
2023-01-19T05:58:36.160Z,0.70
2023-01-19T06:01:44.944Z,0.90
2023-01-19T06:04:53.210Z,1.10
2023-01-19T06:08:02.129Z,0.90
2023-01-19T06:11:12.234Z,0.77
2023-01-19T06:14:21.007Z,0.90
2023-01-19T06:17:39.260Z,0.75
2023-01-19T06:20:48.171Z,1.08
2023-01-19T06:23:56.840Z,0.75
2023-01-19T06:27:05.174Z,1.70
2023-01-19T06:30:14.268Z,0.80
2023-01-19T06:33:24.153Z,1.00
2023-01-19T06:36:39.184Z,1.40
2023-01-19T06:39:41.096Z,0.77
2023-01-19T06:42:56.200Z,0.87
2023-01-19T06:45:58.846Z,0.90
2023-01-19T06:49:20.305Z,1.10
2023-01-19T06:52:22.288Z,1.42
2023-01-19T06:55:37.430Z,1.50
2023-01-19T06:58:46.200Z,1.10
2023-01-19T07:02:01.426Z,2.37
2023-01-19T07:05:29.187Z,1.60
2023-01-19T07:08:45.220Z,2.30
2023-01-19T07:11:47.752Z,2.45
2023-01-19T07:15:06.352Z,2.30
2023-01-19T07:18:15.043Z,2.10
2023-01-19T07:21:25.849Z,2.12
2023-01-19T07:24:34.928Z,2.17
2023-01-19T07:27:49.224Z,2.60
2023-01-19T07:30:59.301Z,2.70
2023-01-19T07:34:14.272Z,2.80
2023-01-19T07:37:23.253Z,4.05
2023-01-19T07:40:31.911Z,2.80
2023-01-19T07:43:41.254Z,2.62
2023-01-19T07:47:03.266Z,2.67
2023-01-19T07:50:19.327Z,2.67
2023-01-19T07:53:38.364Z,2.83
2023-01-19T07:56:50.232Z,2.97
2023-01-19T07:59:58.948Z,2.85
2023-01-19T08:03:09.262Z,3.60
2023-01-19T08:06:22.555Z,3.03
2023-01-19T08:09:31.230Z,3.80
2023-01-19T08:12:40.424Z,3.97
2023-01-19T08:15:50.033Z,3.58
2023-01-19T08:19:08.386Z,3.87
2023-01-19T08:22:28.293Z,3.63
2023-01-19T08:25:47.360Z,4.20
2023-01-19T08:28:49.333Z,3.37
2023-01-19T08:32:05.903Z,8.50
2023-01-19T08:35:15.325Z,4.07
2023-01-19T08:38:24.156Z,4.10
2023-01-19T08:41:33.358Z,3.97
2023-01-19T08:44:57.256Z,4.53
2023-01-19T08:48:06.299Z,4.60
2023-01-19T08:51:21.587Z,11.33
2023-01-19T08:54:30.339Z,4.37
2023-01-19T08:57:38.995Z,4.32
2023-01-19T09:00:47.304Z,4.47
2023-01-19T09:04:02.281Z,3.80
2023-01-19T09:10:20.229Z,5.40
2023-01-19T09:13:29.303Z,5.35
2023-01-19T09:16:44.316Z,5.20
2023-01-19T09:19:56.305Z,5.75
2023-01-19T09:23:12.491Z,4.10
2023-01-19T09:26:21.359Z,6.77
2023-01-19T09:29:30.646Z,8.00
2023-01-19T09:33:10.525Z,7.75
2023-01-19T09:36:25.289Z,7.85
2023-01-19T09:39:27.387Z,7.77
2023-01-19T09:42:55.011Z,10.13
2023-01-19T09:46:03.739Z,7.57
2023-01-19T09:49:40.336Z,7.07
2023-01-19T09:52:47.392Z,7.35
2023-01-19T09:56:03.307Z,7.17
2023-01-19T09:59:30.313Z,9.23
2023-01-19T10:02:40.494Z,8.15
2023-01-19T10:06:08.404Z,7.75
2023-01-19T10:09:27.527Z,7.65
2023-01-19T10:12:54.429Z,8.13
2023-01-19T10:16:10.216Z,7.30
2023-01-19T10:19:39.360Z,9.35
2023-01-19T10:22:42.899Z,7.62
2023-01-19T10:25:59.418Z,6.87
2023-01-19T10:29:26.402Z,6.83
2023-01-19T10:32:34.014Z,7.23
2023-01-19T10:35:48.404Z,6.07
2023-01-19T10:38:50.532Z,6.50
2023-01-19T10:42:09.423Z,6.00
2023-01-19T10:45:21.862Z,6.63
2023-01-19T10:48:46.496Z,7.70
2023-01-19T10:52:04.320Z,6.12
2023-01-19T10:55:26.712Z,5.90
2023-01-19T10:58:37.377Z,5.60
2023-01-19T11:02:09.860Z,5.90
2023-01-19T11:05:24.673Z,6.50
2023-01-19T11:08:49.571Z,6.32
2023-01-19T11:11:53.444Z,6.45
2023-01-19T11:15:22.325Z,7.85
2023-01-19T11:18:30.502Z,6.17
2023-01-19T11:21:45.377Z,5.03
2023-01-19T11:25:05.348Z,9.77
2023-01-19T11:28:25.393Z,5.82
2023-01-19T11:31:42.500Z,5.60
2023-01-19T11:34:44.414Z,5.37
2023-01-19T11:38:13.388Z,7.57
2023-01-19T11:41:19.962Z,5.90
2023-01-19T11:44:41.380Z,6.43
2023-01-19T11:47:50.109Z,5.95
2023-01-19T11:50:59.384Z,8.87
